createdAt,value
2019-02-24T00:00:11.631Z,7.6
2019-02-24T00:01:13.165Z,7.6
2019-02-24T00:02:14.745Z,7.7
2019-02-24T00:03:16.142Z,7.7
2019-02-24T00:04:17.679Z,7.7
2019-02-24T00:05:19.239Z,7.8
2019-02-24T00:06:20.792Z,7.8
2019-02-24T00:07:22.352Z,7.9
2019-02-24T00:08:23.605Z,7.9
2019-02-24T00:09:24.991Z,7.2
2019-02-24T00:10:26.381Z,7.3
2019-02-24T00:11:27.919Z,7.4
2019-02-24T00:12:29.457Z,7.4
2019-02-24T00:13:31.028Z,7.5
2019-02-24T00:14:32.428Z,7.6
2019-02-24T00:15:33.872Z,7.6
2019-02-24T00:16:35.427Z,7.7
2019-02-24T00:17:36.835Z,7.7
2019-02-24T00:18:38.076Z,7.8
2019-02-24T00:19:39.627Z,7.8
2019-02-24T00:20:41.186Z,7.9
2019-02-24T00:21:42.268Z,7.9
2019-02-24T00:22:43.812Z,7.9
2019-02-24T00:23:45.203Z,7.9
2019-02-24T00:24:46.775Z,7.9
2019-02-24T00:25:48.324Z,7.8
2019-02-24T00:26:49.580Z,7.8
2019-02-24T00:27:51.158Z,7.8
2019-02-24T00:28:52.550Z,7.8
2019-02-24T00:29:54.101Z,7.8
2019-02-24T00:30:55.658Z,7.8
2019-02-24T00:31:57.071Z,7.9
2019-02-24T00:32:58.459Z,7.9
2019-02-24T00:33:59.871Z,7.9
2019-02-24T00:35:01.280Z,7.9
2019-02-24T00:36:02.535Z,7.9
2019-02-24T00:37:03.967Z,7.8
2019-02-24T00:38:05.383Z,7.8
2019-02-24T00:39:06.786Z,7.8
2019-02-24T00:40:08.029Z,7.8
2019-02-24T00:41:09.412Z,7.8
2019-02-24T00:42:10.957Z,7.8
2019-02-24T00:43:12.517Z,7.7
2019-02-24T00:44:13.735Z,7.8
2019-02-24T00:45:15.171Z,7.8
2019-02-24T00:46:16.575Z,7.8
2019-02-24T00:47:17.987Z,7.8
2019-02-24T00:48:19.607Z,7.8
2019-02-24T00:49:21.170Z,7.8
2019-02-24T00:50:22.544Z,7.8
2019-02-24T00:51:24.103Z,7.8
2019-02-24T00:52:25.654Z,7.8
2019-02-24T00:53:27.223Z,7.8
2019-02-24T00:54:28.809Z,7.8
2019-02-24T00:55:31.966Z,7.8
2019-02-24T00:56:33.509Z,7.8
2019-02-24T00:57:35.054Z,7.8
2019-02-24T00:58:36.289Z,7.8
2019-02-24T00:59:37.836Z,7.8
2019-02-24T01:00:39.233Z,7.8
2019-02-24T01:01:40.781Z,7.8
2019-02-24T01:02:42.334Z,7.8
2019-02-24T01:03:43.873Z,7.8
2019-02-24T01:04:45.473Z,7.9
2019-02-24T01:05:47.024Z,7.9
2019-02-24T01:06:48.402Z,7.8
2019-02-24T01:07:49.983Z,7.8
2019-02-24T01:08:51.370Z,7.8
2019-02-24T01:09:52.610Z,7.8
2019-02-24T01:10:54.169Z,7.8
2019-02-24T01:11:55.559Z,7.8
2019-02-24T01:12:57.102Z,7.8
2019-02-24T01:13:58.662Z,7.9
2019-02-24T01:14:59.871Z,7.8
2019-02-24T01:16:01.429Z,7.9
2019-02-24T01:17:02.824Z,7.9
2019-02-24T01:18:04.370Z,7.9
2019-02-24T01:19:05.918Z,7.9
2019-02-24T01:20:07.481Z,7.8
2019-02-24T01:21:09.021Z,7.8
2019-02-24T01:22:10.409Z,7.8
2019-02-24T01:23:11.826Z,7.8
2019-02-24T01:24:13.370Z,7.8
2019-02-24T01:25:14.955Z,7.8
2019-02-24T01:26:16.338Z,7.8
2019-02-24T01:27:17.902Z,7.8
2019-02-24T01:28:26.938Z,7.8
2019-02-24T01:29:28.354Z,7.9
2019-02-24T01:30:29.763Z,7.9
2019-02-24T01:31:31.320Z,7.8
2019-02-24T01:32:32.699Z,7.8
2019-02-24T01:33:34.255Z,7.8
2019-02-24T01:34:35.795Z,7.8
2019-02-24T01:35:37.207Z,7.8
2019-02-24T01:36:38.628Z,7.8
2019-02-24T01:37:40.182Z,7.8
2019-02-24T01:38:41.559Z,7.8
2019-02-24T01:39:42.952Z,7.8
2019-02-24T01:40:44.358Z,7.8
2019-02-24T01:41:45.738Z,7.8
2019-02-24T01:42:47.289Z,7.8
2019-02-24T01:43:48.819Z,7.8
2019-02-24T01:44:50.365Z,7.8
2019-02-24T01:45:51.908Z,7.8
2019-02-24T01:46:53.290Z,7.8
2019-02-24T01:47:54.694Z,7.8
2019-02-24T01:48:55.912Z,7.8
2019-02-24T01:49:57.309Z,7.8
2019-02-24T01:50:58.857Z,7.8
2019-02-24T01:52:00.410Z,7.8
2019-02-24T01:53:01.631Z,7.8
2019-02-24T01:54:03.210Z,7.8
2019-02-24T01:55:04.746Z,7.7
2019-02-24T01:56:06.292Z,7.7
2019-02-24T01:57:07.846Z,7.7
2019-02-24T01:58:09.387Z,7.7
2019-02-24T01:59:10.787Z,7.8
2019-02-24T02:00:12.321Z,7.8
2019-02-24T02:01:13.860Z,7.8
2019-02-24T02:02:15.247Z,7.8
2019-02-24T02:03:16.630Z,7.8
2019-02-24T02:04:17.877Z,7.7
2019-02-24T02:05:19.511Z,7.6
2019-02-24T02:06:21.070Z,7.5
2019-02-24T02:07:22.319Z,7.4
2019-02-24T02:08:23.712Z,7.2
2019-02-24T02:09:25.140Z,7.1
2019-02-24T02:10:26.567Z,7.1
2019-02-24T02:11:27.945Z,7.1
2019-02-24T02:12:29.486Z,7.1
2019-02-24T02:13:31.039Z,7.1
2019-02-24T02:14:32.590Z,7.1
2019-02-24T02:15:33.984Z,7.1
2019-02-24T02:16:35.388Z,7.1
2019-02-24T02:17:36.671Z,7.2
2019-02-24T02:18:38.204Z,7.2
2019-02-24T02:19:39.432Z,7.2
2019-02-24T02:20:40.996Z,7.2
2019-02-24T02:21:42.412Z,7.1
2019-02-24T02:22:43.962Z,7.1
2019-02-24T02:23:45.504Z,7.1
2019-02-24T02:24:47.078Z,7.2
2019-02-24T02:25:48.612Z,7.1
2019-02-24T02:26:50.190Z,7.1
2019-02-24T02:27:51.760Z,7.1
2019-02-24T02:28:53.302Z,7.1
2019-02-24T02:29:54.525Z,7.1
2019-02-24T02:30:56.091Z,7.1
2019-02-24T02:31:57.645Z,7.1
2019-02-24T02:32:59.188Z,7.1
2019-02-24T02:34:00.410Z,7.1
2019-02-24T02:35:01.959Z,7.1
2019-02-24T02:36:03.370Z,7.1
2019-02-24T02:37:04.789Z,7.1
2019-02-24T02:38:06.318Z,7.1
2019-02-24T02:39:07.871Z,7.1
2019-02-24T02:40:09.336Z,7.1
2019-02-24T02:41:10.746Z,7.1
2019-02-24T02:42:12.278Z,7.1
2019-02-24T02:43:13.851Z,7.1
2019-02-24T02:44:15.234Z,7.1
2019-02-24T02:45:16.781Z,7.1
2019-02-24T02:46:18.269Z,7.1
2019-02-24T02:47:19.708Z,7.1
2019-02-24T02:48:21.093Z,7.1
2019-02-24T02:49:22.564Z,7.1
2019-02-24T02:50:24.128Z,7.1
2019-02-24T02:51:25.692Z,7.2
2019-02-24T02:52:27.260Z,7.2
2019-02-24T02:53:28.672Z,7.2
2019-02-24T02:54:30.229Z,7.2
2019-02-24T02:55:31.761Z,7.2
2019-02-24T02:56:33.168Z,7.2
2019-02-24T02:57:34.552Z,7.2
2019-02-24T02:58:36.564Z,7.2
2019-02-24T02:59:38.107Z,7.2
2019-02-24T03:00:39.656Z,7.2
2019-02-24T03:01:41.330Z,7.2
2019-02-24T03:02:42.935Z,7.2
2019-02-24T03:03:44.547Z,7.2
2019-02-24T03:04:45.772Z,7.2
2019-02-24T03:05:47.086Z,7.2
2019-02-24T03:06:48.616Z,7.2
2019-02-24T03:07:50.168Z,7.2
2019-02-24T03:08:51.712Z,7.3
2019-02-24T03:09:53.256Z,7.3
2019-02-24T03:10:54.795Z,7.3
2019-02-24T03:11:56.380Z,7.3
2019-02-24T03:12:57.643Z,7.2
2019-02-24T03:13:59.108Z,7.3
2019-02-24T03:15:00.689Z,7.3
2019-02-24T03:16:02.103Z,7.3
2019-02-24T03:17:03.658Z,7.3
2019-02-24T03:18:05.071Z,7.3
2019-02-24T03:19:06.630Z,7.4
2019-02-24T03:20:07.958Z,7.4
2019-02-24T03:21:09.522Z,7.4
2019-02-24T03:22:10.947Z,7.5
2019-02-24T03:23:12.339Z,7.5
2019-02-24T03:24:13.430Z,7.6
2019-02-24T03:25:14.989Z,7.7
2019-02-24T03:26:16.372Z,7.8
2019-02-24T03:27:17.748Z,7.8
2019-02-24T03:28:19.145Z,7.5
2019-02-24T03:29:20.574Z,7.5
2019-02-24T03:30:22.178Z,7.6
2019-02-24T03:31:23.769Z,7.7
2019-02-24T03:32:25.344Z,7.7
2019-02-24T03:33:26.779Z,7.8
2019-02-24T03:34:28.320Z,7.8
2019-02-24T03:35:29.932Z,7.9
2019-02-24T03:36:31.473Z,7.9
2019-02-24T03:37:33.028Z,7.9
2019-02-24T03:38:34.435Z,7.9
2019-02-24T03:39:35.979Z,7.9
2019-02-24T03:40:37.368Z,7.9
2019-02-24T03:41:38.931Z,7.9
2019-02-24T03:42:40.406Z,7.9
2019-02-24T03:43:41.966Z,7.8
2019-02-24T03:44:43.577Z,7.8
2019-02-24T03:45:44.999Z,7.8
2019-02-24T03:46:46.550Z,7.8
2019-02-24T03:47:48.128Z,7.8
2019-02-24T03:48:49.343Z,7.8
2019-02-24T03:49:50.563Z,7.8
2019-02-24T03:50:52.112Z,7.8
2019-02-24T03:51:53.496Z,7.8
2019-02-24T03:52:54.727Z,7.8
2019-02-24T03:53:56.111Z,7.8
2019-02-24T03:54:57.501Z,7.8
2019-02-24T03:55:59.041Z,7.8
2019-02-24T03:57:00.602Z,7.8
2019-02-24T03:58:01.866Z,7.8
2019-02-24T03:59:03.479Z,7.8
2019-02-24T04:00:04.739Z,7.7
2019-02-24T04:01:06.334Z,7.7
2019-02-24T04:02:07.875Z,7.7
2019-02-24T04:03:09.271Z,7.7
2019-02-24T04:04:10.510Z,7.7
2019-02-24T04:05:12.146Z,7.7
2019-02-24T04:06:13.700Z,7.8
2019-02-24T04:07:15.232Z,7.8
2019-02-24T04:08:16.775Z,7.8
2019-02-24T04:09:18.322Z,7.9
2019-02-24T04:10:19.715Z,7.9
2019-02-24T04:11:21.102Z,7.9
2019-02-24T04:12:22.662Z,7.9
2019-02-24T04:13:24.222Z,7.8
2019-02-24T04:14:25.638Z,7.8
2019-02-24T04:15:27.163Z,7.7
2019-02-24T04:16:28.266Z,7.7
2019-02-24T04:17:29.675Z,7.6
2019-02-24T04:18:31.070Z,7.5
2019-02-24T04:19:32.631Z,7.4
2019-02-24T04:20:34.210Z,7.3
2019-02-24T04:21:35.739Z,7.2
2019-02-24T04:22:37.290Z,7.2
2019-02-24T04:23:38.395Z,7.2
2019-02-24T04:24:39.824Z,7.2
2019-02-24T04:25:41.199Z,7.1
2019-02-24T04:26:42.267Z,7.1
2019-02-24T04:27:43.808Z,7.1
2019-02-24T04:28:45.058Z,7.2
2019-02-24T04:29:46.444Z,7.2
2019-02-24T04:30:47.667Z,7.2
2019-02-24T04:31:49.240Z,7.1
2019-02-24T04:32:50.779Z,7.2
2019-02-24T04:33:52.006Z,7.2
2019-02-24T04:34:53.438Z,7.2
2019-02-24T04:35:54.820Z,7.2
2019-02-24T04:36:56.371Z,7.2
2019-02-24T04:37:57.460Z,7.2
2019-02-24T04:38:58.715Z,7.2
2019-02-24T04:40:00.233Z,7.3
2019-02-24T04:41:01.885Z,7.3
2019-02-24T04:42:03.314Z,7.4
2019-02-24T04:43:04.872Z,7.4
2019-02-24T04:44:06.426Z,7.4
2019-02-24T04:45:07.965Z,7.5
2019-02-24T04:46:09.517Z,7.5
2019-02-24T04:47:10.916Z,7.5
2019-02-24T04:48:12.461Z,7.5
2019-02-24T04:49:14.029Z,7.5
2019-02-24T04:50:15.458Z,7.5
2019-02-24T04:51:16.998Z,7.5
2019-02-24T04:52:18.422Z,7.5
2019-02-24T04:53:19.800Z,7.5
2019-02-24T04:54:21.334Z,7.6
2019-02-24T04:55:22.741Z,7.7
2019-02-24T04:56:24.136Z,7.7
2019-02-24T04:57:25.526Z,7.8
2019-02-24T04:58:26.530Z,7.8
2019-02-24T04:59:36.621Z,7.8
2019-02-24T05:00:38.014Z,7.7
2019-02-24T05:01:39.424Z,7.7
2019-02-24T05:02:40.850Z,7.8
2019-02-24T05:03:42.409Z,7.8
2019-02-24T05:04:43.959Z,7.8
2019-02-24T05:05:45.506Z,7.8
2019-02-24T05:06:46.881Z,7.8
2019-02-24T05:07:48.439Z,7.8
2019-02-24T05:08:49.988Z,7.8
2019-02-24T05:09:51.558Z,7.9
2019-02-24T05:10:52.942Z,7.7
2019-02-24T05:11:54.197Z,7.8
2019-02-24T05:12:55.730Z,7.8
2019-02-24T05:13:57.274Z,7.8
2019-02-24T05:14:58.819Z,7.8
2019-02-24T05:16:00.358Z,7.8
2019-02-24T05:17:01.716Z,7.8
2019-02-24T05:18:03.295Z,7.8
2019-02-24T05:19:04.898Z,7.8
2019-02-24T05:20:06.447Z,7.8
2019-02-24T05:21:07.989Z,7.8
2019-02-24T05:22:09.528Z,7.8
2019-02-24T05:23:11.128Z,7.8
2019-02-24T05:24:12.676Z,7.8
2019-02-24T05:25:14.094Z,7.8
2019-02-24T05:26:15.478Z,7.8
2019-02-24T05:27:16.891Z,7.8
2019-02-24T05:28:18.637Z,7.8
2019-02-24T05:29:21.962Z,7.8
2019-02-24T05:30:23.211Z,7.7
2019-02-24T05:31:24.770Z,7.7
2019-02-24T05:32:26.170Z,7.7
2019-02-24T05:33:27.741Z,7.7
2019-02-24T05:34:29.284Z,7.8
2019-02-24T05:35:30.821Z,7.8
2019-02-24T05:36:32.929Z,7.2
2019-02-24T05:37:34.509Z,7.3
2019-02-24T05:38:35.933Z,7.4
2019-02-24T05:39:37.494Z,7.4
2019-02-24T05:40:39.036Z,7.5
2019-02-24T05:41:40.420Z,7.5
2019-02-24T05:42:44.099Z,7.5
2019-02-24T05:43:45.651Z,7.5
2019-02-24T05:44:47.208Z,7.5
2019-02-24T05:45:48.618Z,7.6
2019-02-24T05:46:50.038Z,7.6
2019-02-24T05:47:51.619Z,7.6
2019-02-24T05:48:53.170Z,7.6
2019-02-24T05:49:54.413Z,7.6
2019-02-24T05:50:55.799Z,7.6
2019-02-24T05:51:57.349Z,7.6
2019-02-24T05:52:58.750Z,7.7
2019-02-24T05:54:00.289Z,7.7
2019-02-24T05:55:01.682Z,7.7
2019-02-24T05:56:03.259Z,7.7
2019-02-24T05:57:04.856Z,7.7
2019-02-24T05:58:06.566Z,7.7
2019-02-24T05:59:07.980Z,7.7
2019-02-24T06:00:09.427Z,7.8
2019-02-24T06:01:10.813Z,7.8
2019-02-24T06:02:12.225Z,7.8
2019-02-24T06:03:13.869Z,7.8
2019-02-24T06:04:15.309Z,7.8
2019-02-24T06:05:16.920Z,7.7
2019-02-24T06:06:18.501Z,7.6
2019-02-24T06:07:19.911Z,7.5
2019-02-24T06:08:21.443Z,7.4
2019-02-24T06:09:22.847Z,7.3
2019-02-24T06:10:24.396Z,7.2
2019-02-24T06:11:25.948Z,7.2
2019-02-24T06:12:27.533Z,7.1
2019-02-24T06:13:28.953Z,7.1
2019-02-24T06:14:30.346Z,7.1
2019-02-24T06:15:31.748Z,7.2
2019-02-24T06:16:33.130Z,7.1
2019-02-24T06:17:34.370Z,7.1
2019-02-24T06:18:35.941Z,7.1
2019-02-24T06:19:37.335Z,7.1
2019-02-24T06:20:39.357Z,7.2
2019-02-24T06:21:40.937Z,7.2
2019-02-24T06:22:42.323Z,7.2
2019-02-24T06:23:43.873Z,7.2
2019-02-24T06:24:45.318Z,7.2
2019-02-24T06:25:46.718Z,7.2
2019-02-24T06:26:48.170Z,7.2
2019-02-24T06:27:49.752Z,7.3
2019-02-24T06:28:51.325Z,7.4
2019-02-24T06:29:52.934Z,7.4
2019-02-24T06:30:54.397Z,7.5
2019-02-24T06:31:55.979Z,7.6
2019-02-24T06:32:57.501Z,7.7
2019-02-24T06:33:59.056Z,7.7
2019-02-24T06:35:00.601Z,7.8
2019-02-24T06:36:02.155Z,7.7
2019-02-24T06:37:03.557Z,7.8
2019-02-24T06:38:05.114Z,7.8
2019-02-24T06:39:06.677Z,7.9
2019-02-24T06:40:08.103Z,7.9
2019-02-24T06:41:09.338Z,7.9
2019-02-24T06:42:10.893Z,7.9
2019-02-24T06:43:12.290Z,7.9
2019-02-24T06:44:13.696Z,7.9
2019-02-24T06:45:15.257Z,7.9
2019-02-24T06:46:16.663Z,7.9
2019-02-24T06:47:18.073Z,7.3
2019-02-24T06:48:19.501Z,7.4
2019-02-24T06:49:21.047Z,7.4
2019-02-24T06:50:22.462Z,7.4
2019-02-24T06:51:23.878Z,7.5
2019-02-24T06:52:25.446Z,7.5
2019-02-24T06:53:26.874Z,7.5
2019-02-24T06:54:28.462Z,7.5
2019-02-24T06:55:30.010Z,7.6
2019-02-24T06:56:31.603Z,7.6
2019-02-24T06:57:33.149Z,7.5
2019-02-24T06:58:34.560Z,7.6
2019-02-24T06:59:36.127Z,7.6
2019-02-24T07:00:37.531Z,7.6
2019-02-24T07:01:38.905Z,7.6
2019-02-24T07:02:40.445Z,7.6
2019-02-24T07:03:42.038Z,7.6
2019-02-24T07:04:43.597Z,7.6
2019-02-24T07:05:44.985Z,7.6
2019-02-24T07:06:46.548Z,7.6
2019-02-24T07:07:48.111Z,7.6
2019-02-24T07:08:49.670Z,7.6
2019-02-24T07:09:51.237Z,7.6
2019-02-24T07:10:52.625Z,7.6
2019-02-24T07:11:54.030Z,7.6
2019-02-24T07:12:55.570Z,7.7
2019-02-24T07:13:57.141Z,7.7
2019-02-24T07:14:58.734Z,7.8
2019-02-24T07:15:59.976Z,7.8
2019-02-24T07:17:01.381Z,7.9
2019-02-24T07:18:02.796Z,7.9
2019-02-24T07:19:04.047Z,7.9
2019-02-24T07:20:05.617Z,7.9
2019-02-24T07:21:07.163Z,7.9
2019-02-24T07:22:08.713Z,7.1
2019-02-24T07:23:10.142Z,7.3
2019-02-24T07:24:11.713Z,7.3
2019-02-24T07:25:13.133Z,7.4
2019-02-24T07:26:14.541Z,7.5
2019-02-24T07:27:16.091Z,7.5
2019-02-24T07:28:17.308Z,7.6
2019-02-24T07:29:18.726Z,7.7
2019-02-24T07:30:25.211Z,7.8
2019-02-24T07:31:26.737Z,7.9
2019-02-24T07:32:28.153Z,7.9
2019-02-24T07:33:29.709Z,7.5
2019-02-24T07:34:31.269Z,7.6
2019-02-24T07:35:32.855Z,7.7
2019-02-24T07:36:33.786Z,7.8
2019-02-24T07:37:35.342Z,7.9
2019-02-24T07:38:36.777Z,7.9
2019-02-24T07:39:38.163Z,7.8
2019-02-24T07:40:39.707Z,7.9
2019-02-24T07:41:41.161Z,7.9
2019-02-24T07:42:42.705Z,7.9
2019-02-24T07:43:43.945Z,7.9
2019-02-24T07:44:45.347Z,7.8
2019-02-24T07:45:46.727Z,7.7
2019-02-24T07:46:48.305Z,7.7
2019-02-24T07:47:49.706Z,7.6
2019-02-24T07:48:51.261Z,7.5
2019-02-24T07:49:52.812Z,7.5
2019-02-24T07:50:54.349Z,7.4
2019-02-24T07:51:55.946Z,7.4
2019-02-24T07:52:57.519Z,7.3
2019-02-24T07:53:59.050Z,7.2
2019-02-24T07:55:00.635Z,7.1
2019-02-24T07:56:02.014Z,7.1
2019-02-24T07:57:03.573Z,7.2
2019-02-24T07:58:05.160Z,7.1
2019-02-24T07:59:06.712Z,7.2
2019-02-24T08:00:08.110Z,7.1
2019-02-24T08:01:09.514Z,7.2
2019-02-24T08:02:10.909Z,7.2
2019-02-24T08:03:12.309Z,7.2
2019-02-24T08:04:13.714Z,7.2
2019-02-24T08:05:15.259Z,7.2
2019-02-24T08:06:16.816Z,7.2
2019-02-24T08:07:18.202Z,7.2
2019-02-24T08:08:19.451Z,7.2
2019-02-24T08:09:20.829Z,7.2
2019-02-24T08:10:22.070Z,7.2
2019-02-24T08:11:23.628Z,7.3
2019-02-24T08:12:25.168Z,7.3
2019-02-24T08:13:26.720Z,7.3
2019-02-24T08:14:28.278Z,7.3
2019-02-24T08:15:29.837Z,7.4
2019-02-24T08:16:31.246Z,7.4
2019-02-24T08:17:32.873Z,7.5
2019-02-24T08:18:33.962Z,7.5
2019-02-24T08:19:35.517Z,7.6
2019-02-24T08:20:37.094Z,7.6
2019-02-24T08:21:38.323Z,7.7
2019-02-24T08:22:39.722Z,7.7
2019-02-24T08:23:41.103Z,7.7
2019-02-24T08:24:42.681Z,7.7
2019-02-24T08:25:44.073Z,7.7
2019-02-24T08:26:45.521Z,7.7
2019-02-24T08:27:46.913Z,7.8
2019-02-24T08:28:48.000Z,7.8
2019-02-24T08:29:49.431Z,7.8
2019-02-24T08:30:50.832Z,7.8
2019-02-24T08:31:52.228Z,7.8
2019-02-24T08:32:53.780Z,7.8
2019-02-24T08:34:10.030Z,7.8
2019-02-24T08:35:11.499Z,7.8
2019-02-24T08:36:12.902Z,7.7
2019-02-24T08:37:14.153Z,7.7
2019-02-24T08:38:15.707Z,7.6
2019-02-24T08:39:16.954Z,7.6
2019-02-24T08:40:18.503Z,7.6
2019-02-24T08:41:19.894Z,7.5
2019-02-24T08:42:21.296Z,7.5
2019-02-24T08:43:22.738Z,7.4
2019-02-24T08:44:24.139Z,7.3
2019-02-24T08:45:25.573Z,7.2
2019-02-24T08:46:26.978Z,7.2
2019-02-24T08:47:28.540Z,7.2
2019-02-24T08:48:30.111Z,7.2
2019-02-24T08:49:31.501Z,7.2
2019-02-24T08:50:33.062Z,7.2
2019-02-24T08:51:34.470Z,7.2
2019-02-24T08:52:50.561Z,7.2
2019-02-24T08:53:52.124Z,7.2
2019-02-24T08:54:53.690Z,7.2
2019-02-24T08:55:55.089Z,7.2
2019-02-24T08:56:57.075Z,7.2
2019-02-24T08:57:58.628Z,7.2
2019-02-24T08:59:00.197Z,7.2
2019-02-24T09:00:01.716Z,7.2
2019-02-24T09:01:03.262Z,7.2
2019-02-24T09:02:04.505Z,7.2
2019-02-24T09:03:05.907Z,7.2
2019-02-24T09:04:07.454Z,7.2
2019-02-24T09:05:09.053Z,7.2
2019-02-24T09:06:10.455Z,7.2
2019-02-24T09:07:11.853Z,7.2
2019-02-24T09:08:13.095Z,7.2
2019-02-24T09:09:29.183Z,7.2
2019-02-24T09:10:30.569Z,7.2
2019-02-24T09:11:32.135Z,7.2
2019-02-24T09:12:33.677Z,7.2
2019-02-24T09:13:35.227Z,7.2
2019-02-24T09:14:36.792Z,7.2
2019-02-24T09:15:38.346Z,7.2
2019-02-24T09:16:40.059Z,7.2
2019-02-24T09:17:41.673Z,7.2
2019-02-24T09:18:43.269Z,7.3
2019-02-24T09:19:44.822Z,7.3
2019-02-24T09:20:46.244Z,7.3
2019-02-24T09:21:47.551Z,7.3
2019-02-24T09:22:49.129Z,7.3
2019-02-24T09:23:50.708Z,7.2
2019-02-24T09:24:52.094Z,7.2
2019-02-24T09:25:53.660Z,7.2
2019-02-24T09:26:54.752Z,7.2
2019-02-24T09:27:56.151Z,7.2
2019-02-24T09:28:57.684Z,7.2
2019-02-24T09:29:59.238Z,7.2
2019-02-24T09:31:02.659Z,7.2
2019-02-24T09:32:04.223Z,7.1
2019-02-24T09:33:05.801Z,7.1
2019-02-24T09:34:07.346Z,7.2
2019-02-24T09:35:08.600Z,7.1
2019-02-24T09:36:10.388Z,7.1
2019-02-24T09:37:12.027Z,7.1
2019-02-24T09:38:13.475Z,7.2
2019-02-24T09:39:15.032Z,7.2
2019-02-24T09:40:16.794Z,7.2
2019-02-24T09:41:18.069Z,7.2
2019-02-24T09:42:19.480Z,7.2
2019-02-24T09:43:21.069Z,7.2
2019-02-24T09:44:22.458Z,7.3
2019-02-24T09:45:24.001Z,7.4
2019-02-24T09:46:25.558Z,7.5
2019-02-24T09:47:26.955Z,7.6
2019-02-24T09:48:28.338Z,7.8
2019-02-24T09:49:30.030Z,7.9
2019-02-24T09:50:31.607Z,7.9
2019-02-24T09:51:33.177Z,7.9
2019-02-24T09:52:34.742Z,7.9
2019-02-24T09:53:36.283Z,7.8
2019-02-24T09:54:37.683Z,7.9
2019-02-24T09:55:39.240Z,7.9
2019-02-24T09:56:40.660Z,7.9
2019-02-24T09:57:42.282Z,7.8
2019-02-24T09:58:43.856Z,7.9
2019-02-24T09:59:45.438Z,7.9
2019-02-24T10:00:46.843Z,7.9
2019-02-24T10:01:48.391Z,7.9
2019-02-24T10:02:49.937Z,7.9
2019-02-24T10:03:51.189Z,7.9
2019-02-24T10:04:52.768Z,7.9
2019-02-24T10:05:54.306Z,7.9
2019-02-24T10:06:55.898Z,7.9
2019-02-24T10:07:57.306Z,7.9
2019-02-24T10:08:58.869Z,7.9
2019-02-24T10:10:00.303Z,7.9
2019-02-24T10:11:01.859Z,7.9
2019-02-24T10:12:03.250Z,7.9
2019-02-24T10:13:04.670Z,7.9
2019-02-24T10:14:06.246Z,7.9
2019-02-24T10:15:07.832Z,7.9
2019-02-24T10:16:09.224Z,7.9
2019-02-24T10:17:10.674Z,7.9
2019-02-24T10:18:12.092Z,7.9
2019-02-24T10:19:13.652Z,7.9
2019-02-24T10:20:15.211Z,7.9
2019-02-24T10:21:16.624Z,7.9
2019-02-24T10:22:18.045Z,7.7
2019-02-24T10:23:19.351Z,7.7
2019-02-24T10:24:20.920Z,7.7
2019-02-24T10:25:22.504Z,7.7
2019-02-24T10:26:23.915Z,7.7
2019-02-24T10:27:25.480Z,7.7
2019-02-24T10:28:27.025Z,7.7
2019-02-24T10:29:28.594Z,7.7
2019-02-24T10:30:30.026Z,7.7
2019-02-24T10:31:31.318Z,7.8
2019-02-24T10:32:32.888Z,7.8
2019-02-24T10:33:34.148Z,7.8
2019-02-24T10:34:35.708Z,7.8
2019-02-24T10:35:37.509Z,7.7
2019-02-24T10:36:38.912Z,7.7
2019-02-24T10:37:40.510Z,7.7
2019-02-24T10:38:42.062Z,7.6
2019-02-24T10:39:43.453Z,7.6
2019-02-24T10:40:45.048Z,7.6
2019-02-24T10:41:46.437Z,7.5
2019-02-24T10:42:48.004Z,7.5
2019-02-24T10:43:49.632Z,7.6
2019-02-24T10:44:51.177Z,7.6
2019-02-24T10:45:52.717Z,7.6
2019-02-24T10:46:54.290Z,7.7
2019-02-24T10:47:55.888Z,7.7
2019-02-24T10:49:05.005Z,7.7
2019-02-24T10:50:06.420Z,7.8
2019-02-24T10:51:07.829Z,7.8
2019-02-24T10:52:09.082Z,7.8
2019-02-24T10:53:10.191Z,7.7
2019-02-24T10:54:11.632Z,7.7
2019-02-24T10:55:13.020Z,7.6
2019-02-24T10:56:14.589Z,7.5
2019-02-24T10:57:15.980Z,7.4
2019-02-24T10:58:17.229Z,7.4
2019-02-24T10:59:18.642Z,7.2
2019-02-24T11:00:20.033Z,7.1
2019-02-24T11:01:31.253Z,7.1
2019-02-24T11:02:32.717Z,7.2
2019-02-24T11:03:34.299Z,7.2
2019-02-24T11:04:35.858Z,7.1
2019-02-24T11:05:37.428Z,7.2
2019-02-24T11:06:38.510Z,7.1
2019-02-24T11:07:39.913Z,7.1
2019-02-24T11:08:41.508Z,7.1
2019-02-24T11:09:43.032Z,7.1
2019-02-24T11:10:44.438Z,7.1
2019-02-24T11:11:45.826Z,7.1
2019-02-24T11:12:47.059Z,7.1
2019-02-24T11:13:48.609Z,7.1
2019-02-24T11:14:50.002Z,7.2
2019-02-24T11:15:51.554Z,7.2
2019-02-24T11:16:52.946Z,7.2
2019-02-24T11:17:54.366Z,7.2
2019-02-24T11:18:55.938Z,7.2
2019-02-24T11:19:57.351Z,7.2
2019-02-24T11:20:58.612Z,7.2
2019-02-24T11:21:59.840Z,7.2
2019-02-24T11:23:01.271Z,7.3
2019-02-24T11:24:02.851Z,7.4
2019-02-24T11:25:04.265Z,7.5
2019-02-24T11:26:05.681Z,7.6
2019-02-24T11:27:06.940Z,7.7
2019-02-24T11:28:08.492Z,7.8
2019-02-24T11:29:10.051Z,7.9
2019-02-24T11:30:11.596Z,7.9
2019-02-24T11:31:13.036Z,7.9
2019-02-24T11:32:14.642Z,7.9
2019-02-24T11:33:16.240Z,7.9
2019-02-24T11:34:17.620Z,7.9
2019-02-24T11:35:19.198Z,7.9
2019-02-24T11:36:20.730Z,7.9
2019-02-24T11:37:22.306Z,7.8
2019-02-24T11:38:23.763Z,7.8
2019-02-24T11:39:25.070Z,7.7
2019-02-24T11:40:26.305Z,7.6
2019-02-24T11:41:27.695Z,7.5
2019-02-24T11:42:29.111Z,7.4
2019-02-24T11:43:30.519Z,7.3
2019-02-24T11:44:31.944Z,7.2
2019-02-24T11:45:33.499Z,7.2
2019-02-24T11:46:34.885Z,7.2
2019-02-24T11:47:36.308Z,7.2
2019-02-24T11:48:37.708Z,7.1
2019-02-24T11:49:38.817Z,7.2
2019-02-24T11:50:40.401Z,7.1
2019-02-24T11:51:41.967Z,7.2
2019-02-24T11:52:43.369Z,7.1
2019-02-24T11:53:44.793Z,7.2
2019-02-24T11:54:46.190Z,7.2
2019-02-24T11:55:47.751Z,7.2
2019-02-24T11:56:49.343Z,7.2
2019-02-24T11:57:50.748Z,7.2
2019-02-24T11:58:52.337Z,7.2
2019-02-24T11:59:53.902Z,7.1
2019-02-24T12:00:55.137Z,7.2
2019-02-24T12:01:56.529Z,7.2
2019-02-24T12:02:58.102Z,7.2
2019-02-24T12:03:59.647Z,7.2
2019-02-24T12:05:01.208Z,7.2
2019-02-24T12:06:02.657Z,7.2
2019-02-24T12:07:04.220Z,7.2
2019-02-24T12:08:05.774Z,7.2
2019-02-24T12:09:07.350Z,7.2
2019-02-24T12:10:08.599Z,7.2
2019-02-24T12:11:10.114Z,7.2
2019-02-24T12:12:11.695Z,7.2
2019-02-24T12:13:13.254Z,7.2
2019-02-24T12:14:14.677Z,7.2
2019-02-24T12:15:16.072Z,7.2
2019-02-24T12:16:17.615Z,7.3
2019-02-24T12:17:19.011Z,7.3
2019-02-24T12:18:20.250Z,7.4
2019-02-24T12:19:21.809Z,7.4
2019-02-24T12:20:23.371Z,7.6
2019-02-24T12:21:24.751Z,7.7
2019-02-24T12:22:26.147Z,7.8
2019-02-24T12:23:27.398Z,7.9
2019-02-24T12:24:28.948Z,7.9
2019-02-24T12:25:30.380Z,7.9
2019-02-24T12:26:31.937Z,7.9
2019-02-24T12:27:33.482Z,7.9
2019-02-24T12:28:35.073Z,7.9
2019-02-24T12:29:36.649Z,7.9
2019-02-24T12:30:38.210Z,7.9
2019-02-24T12:31:39.758Z,7.6
2019-02-24T12:32:41.172Z,7.8
2019-02-24T12:33:42.738Z,7.9
2019-02-24T12:34:44.315Z,7.9
2019-02-24T12:35:45.729Z,7.9
2019-02-24T12:36:47.146Z,7.9
2019-02-24T12:37:48.408Z,7.9
2019-02-24T12:38:49.841Z,7.9
2019-02-24T12:39:51.250Z,7.9
2019-02-24T12:40:52.524Z,7.9
2019-02-24T12:41:54.103Z,7.9
2019-02-24T12:42:55.980Z,7.6
2019-02-24T12:43:57.527Z,7.7
2019-02-24T12:44:58.966Z,7.8
2019-02-24T12:46:00.214Z,7.8
2019-02-24T12:47:02.078Z,7.8
2019-02-24T12:48:03.681Z,7.8
2019-02-24T12:49:05.253Z,7.8
2019-02-24T12:50:06.849Z,7.8
2019-02-24T12:51:08.272Z,7.7
2019-02-24T12:52:09.662Z,7.7
2019-02-24T12:53:11.266Z,7.6
2019-02-24T12:54:12.827Z,7.5
2019-02-24T12:55:14.440Z,7.4
2019-02-24T12:56:16.497Z,7.4
2019-02-24T12:57:18.105Z,7.3
2019-02-24T12:58:19.699Z,7.2
2019-02-24T12:59:21.274Z,7.2
2019-02-24T13:00:22.827Z,7.1
2019-02-24T13:01:24.127Z,7.2
2019-02-24T13:02:25.701Z,7.2
2019-02-24T13:03:26.803Z,7.1
2019-02-24T13:04:30.063Z,7.2
2019-02-24T13:05:31.670Z,7.1
2019-02-24T13:06:33.234Z,7.1
2019-02-24T13:07:34.799Z,7.1
2019-02-24T13:08:36.367Z,7.1
2019-02-24T13:09:37.933Z,7.1
2019-02-24T13:10:39.513Z,7.1
2019-02-24T13:11:40.906Z,7.1
2019-02-24T13:12:42.509Z,7.1
2019-02-24T13:13:43.916Z,7.1
2019-02-24T13:14:45.320Z,7.2
2019-02-24T13:15:46.876Z,7.2
2019-02-24T13:16:48.407Z,7.2
2019-02-24T13:17:49.642Z,7.2
2019-02-24T13:18:51.203Z,7.2
2019-02-24T13:19:52.825Z,7.2
2019-02-24T13:20:54.395Z,7.2
2019-02-24T13:21:55.824Z,7.2
2019-02-24T13:22:57.407Z,7.2
2019-02-24T13:23:58.810Z,7.2
2019-02-24T13:25:00.579Z,7.2
2019-02-24T13:26:02.148Z,7.2
2019-02-24T13:27:05.441Z,7.2
2019-02-24T13:28:07.012Z,7.2
2019-02-24T13:29:08.253Z,7.2
2019-02-24T13:30:09.821Z,7.2
2019-02-24T13:31:11.058Z,7.2
2019-02-24T13:32:16.485Z,7.2
2019-02-24T13:33:18.049Z,7.2
2019-02-24T13:34:19.651Z,7.2
2019-02-24T13:35:21.238Z,7.3
2019-02-24T13:36:22.841Z,7.3
2019-02-24T13:37:24.415Z,7.4
2019-02-24T13:38:25.975Z,7.5
2019-02-24T13:39:27.539Z,7.5
2019-02-24T13:40:29.092Z,7.6
2019-02-24T13:41:30.723Z,7.7
2019-02-24T13:42:32.126Z,7.8
2019-02-24T13:43:33.528Z,7.9
2019-02-24T13:44:34.781Z,7.9
2019-02-24T13:45:36.351Z,7.9
2019-02-24T13:46:37.773Z,7.1
2019-02-24T13:47:39.393Z,7.3
2019-02-24T13:48:40.960Z,7.4
2019-02-24T13:49:44.461Z,7.6
2019-02-24T13:50:46.028Z,7.7
2019-02-24T13:51:47.613Z,7.8
2019-02-24T13:52:49.201Z,7.9
2019-02-24T13:53:50.811Z,7.9
2019-02-24T13:54:52.383Z,7.9
2019-02-24T13:55:53.795Z,7.9
2019-02-24T13:56:55.341Z,7.9
2019-02-24T13:57:56.933Z,7.9
2019-02-24T13:58:58.292Z,7.8
2019-02-24T13:59:59.883Z,7.8
2019-02-24T14:01:01.133Z,7.8
2019-02-24T14:02:03.386Z,7.8
2019-02-24T14:03:04.959Z,7.9
2019-02-24T14:04:06.527Z,7.9
2019-02-24T14:05:08.125Z,7.9
2019-02-24T14:06:09.570Z,7.9
2019-02-24T14:07:11.155Z,7.9
2019-02-24T14:08:12.610Z,7.9